sensor_id;sensor_type;location;lat;lon;timestamp;P1;durP1;ratioP1;P2;durP2;ratioP2
4186;SDS011;2107;52.306;10.484;2023-05-02T00:02:02;0.90;;;0.90;;
4186;SDS011;2107;52.306;10.484;2023-05-02T00:04:29;0.80;;;0.80;;
4186;SDS011;2107;52.306;10.484;2023-05-02T00:06:56;0.80;;;0.80;;
4186;SDS011;2107;52.306;10.484;2023-05-02T00:09:24;0.90;;;0.90;;
4186;SDS011;2107;52.306;10.484;2023-05-02T00:11:51;0.60;;;0.60;;
4186;SDS011;2107;52.306;10.484;2023-05-02T00:14:18;0.70;;;0.70;;
4186;SDS011;2107;52.306;10.484;2023-05-02T00:16:45;0.70;;;0.70;;
4186;SDS011;2107;52.306;10.484;2023-05-02T00:19:12;0.70;;;0.70;;
4186;SDS011;2107;52.306;10.484;2023-05-02T00:21:38;0.50;;;0.50;;
4186;SDS011;2107;52.306;10.484;2023-05-02T00:24:05;0.50;;;0.50;;
4186;SDS011;2107;52.306;10.484;2023-05-02T00:26:33;0.50;;;0.50;;
4186;SDS011;2107;52.306;10.484;2023-05-02T00:29:00;0.50;;;0.50;;
4186;SDS011;2107;52.306;10.484;2023-05-02T00:31:27;0.40;;;0.40;;
4186;SDS011;2107;52.306;10.484;2023-05-02T00:33:54;0.40;;;0.40;;
4186;SDS011;2107;52.306;10.484;2023-05-02T00:36:21;0.30;;;0.30;;
4186;SDS011;2107;52.306;10.484;2023-05-02T00:38:48;0.33;;;0.33;;
4186;SDS011;2107;52.306;10.484;2023-05-02T00:41:15;0.30;;;0.30;;
4186;SDS011;2107;52.306;10.484;2023-05-02T00:43:44;0.30;;;0.30;;
4186;SDS011;2107;52.306;10.484;2023-05-02T00:46:10;0.30;;;0.30;;
4186;SDS011;2107;52.306;10.484;2023-05-02T00:48:38;0.20;;;0.20;;
4186;SDS011;2107;52.306;10.484;2023-05-02T00:51:05;0.20;;;0.20;;
4186;SDS011;2107;52.306;10.484;2023-05-02T00:53:32;0.30;;;0.30;;
4186;SDS011;2107;52.306;10.484;2023-05-02T00:56:00;0.20;;;0.20;;
4186;SDS011;2107;52.306;10.484;2023-05-02T00:58:27;0.20;;;0.20;;
4186;SDS011;2107;52.306;10.484;2023-05-02T01:01:02;0.20;;;0.20;;
4186;SDS011;2107;52.306;10.484;2023-05-02T01:03:38;0.20;;;0.20;;
4186;SDS011;2107;52.306;10.484;2023-05-02T01:06:14;0.10;;;0.10;;
4186;SDS011;2107;52.306;10.484;2023-05-02T01:08:54;0.20;;;0.20;;
4186;SDS011;2107;52.306;10.484;2023-05-02T01:11:29;0.20;;;0.20;;
4186;SDS011;2107;52.306;10.484;2023-05-02T01:14:04;0.20;;;0.20;;
4186;SDS011;2107;52.306;10.484;2023-05-02T01:16:35;0.20;;;0.20;;
4186;SDS011;2107;52.306;10.484;2023-05-02T01:19:05;0.20;;;0.20;;
4186;SDS011;2107;52.306;10.484;2023-05-02T01:21:38;0.20;;;0.20;;
4186;SDS011;2107;52.306;10.484;2023-05-02T01:24:05;0.20;;;0.20;;
4186;SDS011;2107;52.306;10.484;2023-05-02T01:26:42;0.20;;;0.20;;
4186;SDS011;2107;52.306;10.484;2023-05-02T01:29:17;0.20;;;0.20;;
4186;SDS011;2107;52.306;10.484;2023-05-02T01:31:47;0.20;;;0.20;;
4186;SDS011;2107;52.306;10.484;2023-05-02T01:34:16;0.10;;;0.10;;
4186;SDS011;2107;52.306;10.484;2023-05-02T01:36:46;0.20;;;0.20;;
4186;SDS011;2107;52.306;10.484;2023-05-02T01:39:21;0.20;;;0.20;;
4186;SDS011;2107;52.306;10.484;2023-05-02T01:41:51;0.20;;;0.20;;
4186;SDS011;2107;52.306;10.484;2023-05-02T01:44:22;0.20;;;0.20;;
4186;SDS011;2107;52.306;10.484;2023-05-02T01:46:50;0.10;;;0.10;;
4186;SDS011;2107;52.306;10.484;2023-05-02T01:49:20;0.10;;;0.10;;
4186;SDS011;2107;52.306;10.484;2023-05-02T01:51:49;0.10;;;0.10;;
4186;SDS011;2107;52.306;10.484;2023-05-02T01:54:17;0.10;;;0.10;;
4186;SDS011;2107;52.306;10.484;2023-05-02T01:56:48;0.20;;;0.20;;
4186;SDS011;2107;52.306;10.484;2023-05-02T01:59:16;0.20;;;0.20;;
4186;SDS011;2107;52.306;10.484;2023-05-02T02:01:46;0.20;;;0.20;;
4186;SDS011;2107;52.306;10.484;2023-05-02T02:04:15;0.20;;;0.20;;
4186;SDS011;2107;52.306;10.484;2023-05-02T02:06:44;0.20;;;0.20;;
4186;SDS011;2107;52.306;10.484;2023-05-02T02:09:14;0.20;;;0.20;;
4186;SDS011;2107;52.306;10.484;2023-05-02T02:11:42;0.20;;;0.20;;
4186;SDS011;2107;52.306;10.484;2023-05-02T02:14:14;0.20;;;0.20;;
4186;SDS011;2107;52.306;10.484;2023-05-02T02:16:45;0.20;;;0.20;;
4186;SDS011;2107;52.306;10.484;2023-05-02T02:19:14;0.20;;;0.20;;
4186;SDS011;2107;52.306;10.484;2023-05-02T02:21:41;0.20;;;0.20;;
4186;SDS011;2107;52.306;10.484;2023-05-02T02:24:08;0.20;;;0.20;;
4186;SDS011;2107;52.306;10.484;2023-05-02T02:26:36;0.20;;;0.20;;
4186;SDS011;2107;52.306;10.484;2023-05-02T02:29:03;0.20;;;0.20;;
4186;SDS011;2107;52.306;10.484;2023-05-02T02:31:30;0.20;;;0.20;;
4186;SDS011;2107;52.306;10.484;2023-05-02T02:33:59;0.20;;;0.20;;
4186;SDS011;2107;52.306;10.484;2023-05-02T02:36:28;0.20;;;0.20;;
4186;SDS011;2107;52.306;10.484;2023-05-02T02:39:02;0.10;;;0.10;;
4186;SDS011;2107;52.306;10.484;2023-05-02T02:41:38;0.20;;;0.20;;
4186;SDS011;2107;52.306;10.484;2023-05-02T02:44:13;0.20;;;0.20;;
4186;SDS011;2107;52.306;10.484;2023-05-02T02:46:54;0.20;;;0.20;;
4186;SDS011;2107;52.306;10.484;2023-05-02T02:49:29;0.10;;;0.10;;
4186;SDS011;2107;52.306;10.484;2023-05-02T02:52:02;0.20;;;0.20;;
4186;SDS011;2107;52.306;10.484;2023-05-02T02:54:37;0.20;;;0.20;;
4186;SDS011;2107;52.306;10.484;2023-05-02T02:57:10;0.20;;;0.20;;
4186;SDS011;2107;52.306;10.484;2023-05-02T02:59:45;0.20;;;0.20;;
4186;SDS011;2107;52.306;10.484;2023-05-02T03:02:16;0.20;;;0.20;;
4186;SDS011;2107;52.306;10.484;2023-05-02T03:04:46;0.27;;;0.27;;
4186;SDS011;2107;52.306;10.484;2023-05-02T03:07:17;0.30;;;0.30;;
4186;SDS011;2107;52.306;10.484;2023-05-02T03:09:45;0.20;;;0.20;;
4186;SDS011;2107;52.306;10.484;2023-05-02T03:12:12;0.40;;;0.40;;
4186;SDS011;2107;52.306;10.484;2023-05-02T03:14:39;0.50;;;0.50;;
4186;SDS011;2107;52.306;10.484;2023-05-02T03:17:07;0.40;;;0.40;;
4186;SDS011;2107;52.306;10.484;2023-05-02T03:19:34;0.60;;;0.60;;
4186;SDS011;2107;52.306;10.484;2023-05-02T03:22:02;0.50;;;0.50;;
4186;SDS011;2107;52.306;10.484;2023-05-02T03:24:29;0.40;;;0.40;;
4186;SDS011;2107;52.306;10.484;2023-05-02T03:26:56;0.30;;;0.30;;
4186;SDS011;2107;52.306;10.484;2023-05-02T03:29:29;0.60;;;0.60;;
4186;SDS011;2107;52.306;10.484;2023-05-02T03:32:18;0.40;;;0.40;;
4186;SDS011;2107;52.306;10.484;2023-05-02T03:34:45;0.60;;;0.60;;
4186;SDS011;2107;52.306;10.484;2023-05-02T03:37:14;0.40;;;0.40;;
4186;SDS011;2107;52.306;10.484;2023-05-02T03:39:40;0.40;;;0.40;;
4186;SDS011;2107;52.306;10.484;2023-05-02T03:42:07;0.40;;;0.40;;
4186;SDS011;2107;52.306;10.484;2023-05-02T03:44:34;0.40;;;0.40;;
4186;SDS011;2107;52.306;10.484;2023-05-02T03:47:01;0.40;;;0.40;;
4186;SDS011;2107;52.306;10.484;2023-05-02T03:49:28;0.40;;;0.40;;
4186;SDS011;2107;52.306;10.484;2023-05-02T03:51:54;0.40;;;0.40;;
4186;SDS011;2107;52.306;10.484;2023-05-02T03:54:23;0.40;;;0.40;;
4186;SDS011;2107;52.306;10.484;2023-05-02T03:56:50;0.60;;;0.60;;
4186;SDS011;2107;52.306;10.484;2023-05-02T03:59:18;0.60;;;0.60;;
4186;SDS011;2107;52.306;10.484;2023-05-02T04:01:47;0.60;;;0.60;;
4186;SDS011;2107;52.306;10.484;2023-05-02T04:04:14;0.40;;;0.40;;
4186;SDS011;2107;52.306;10.484;2023-05-02T04:06:41;0.40;;;0.40;;
4186;SDS011;2107;52.306;10.484;2023-05-02T04:09:08;0.40;;;0.40;;
4186;SDS011;2107;52.306;10.484;2023-05-02T04:11:36;0.70;;;0.70;;
4186;SDS011;2107;52.306;10.484;2023-05-02T04:14:03;0.57;;;0.57;;
4186;SDS011;2107;52.306;10.484;2023-05-02T04:16:30;0.50;;;0.50;;
4186;SDS011;2107;52.306;10.484;2023-05-02T04:18:57;0.70;;;0.70;;
4186;SDS011;2107;52.306;10.484;2023-05-02T04:21:24;0.80;;;0.80;;
4186;SDS011;2107;52.306;10.484;2023-05-02T04:23:51;0.50;;;0.50;;
4186;SDS011;2107;52.306;10.484;2023-05-02T04:26:18;0.40;;;0.40;;
4186;SDS011;2107;52.306;10.484;2023-05-02T04:28:47;0.80;;;0.80;;
4186;SDS011;2107;52.306;10.484;2023-05-02T04:31:13;0.53;;;0.53;;
4186;SDS011;2107;52.306;10.484;2023-05-02T04:33:40;0.70;;;0.70;;
4186;SDS011;2107;52.306;10.484;2023-05-02T04:36:08;0.60;;;0.60;;
4186;SDS011;2107;52.306;10.484;2023-05-02T04:38:35;0.70;;;0.70;;
4186;SDS011;2107;52.306;10.484;2023-05-02T04:41:02;0.70;;;0.70;;
4186;SDS011;2107;52.306;10.484;2023-05-02T04:43:30;0.40;;;0.40;;
4186;SDS011;2107;52.306;10.484;2023-05-02T04:45:58;0.40;;;0.40;;
4186;SDS011;2107;52.306;10.484;2023-05-02T04:48:25;0.50;;;0.50;;
4186;SDS011;2107;52.306;10.484;2023-05-02T04:50:51;0.80;;;0.80;;
4186;SDS011;2107;52.306;10.484;2023-05-02T04:53:20;0.70;;;0.70;;
4186;SDS011;2107;52.306;10.484;2023-05-02T04:55:47;0.60;;;0.60;;
4186;SDS011;2107;52.306;10.484;2023-05-02T04:58:14;0.80;;;0.80;;
4186;SDS011;2107;52.306;10.484;2023-05-02T05:00:41;0.77;;;0.77;;
4186;SDS011;2107;52.306;10.484;2023-05-02T05:03:10;1.13;;;1.13;;
4186;SDS011;2107;52.306;10.484;2023-05-02T05:05:36;1.10;;;1.10;;
4186;SDS011;2107;52.306;10.484;2023-05-02T05:08:03;0.70;;;0.70;;
4186;SDS011;2107;52.306;10.484;2023-05-02T05:10:30;0.63;;;0.63;;
4186;SDS011;2107;52.306;10.484;2023-05-02T05:12:57;0.67;;;0.67;;
4186;SDS011;2107;52.306;10.484;2023-05-02T05:15:24;0.40;;;0.40;;
4186;SDS011;2107;52.306;10.484;2023-05-02T05:17:51;0.50;;;0.50;;
4186;SDS011;2107;52.306;10.484;2023-05-02T05:20:19;0.50;;;0.50;;
4186;SDS011;2107;52.306;10.484;2023-05-02T05:22:46;0.40;;;0.40;;
4186;SDS011;2107;52.306;10.484;2023-05-02T05:25:13;0.30;;;0.30;;
4186;SDS011;2107;52.306;10.484;2023-05-02T05:27:40;0.30;;;0.30;;
4186;SDS011;2107;52.306;10.484;2023-05-02T05:30:07;0.30;;;0.30;;
4186;SDS011;2107;52.306;10.484;2023-05-02T05:32:34;0.30;;;0.30;;
4186;SDS011;2107;52.306;10.484;2023-05-02T05:35:01;0.20;;;0.20;;
4186;SDS011;2107;52.306;10.484;2023-05-02T05:37:31;0.20;;;0.20;;
4186;SDS011;2107;52.306;10.484;2023-05-02T05:39:57;0.20;;;0.20;;
4186;SDS011;2107;52.306;10.484;2023-05-02T05:42:25;0.30;;;0.30;;
4186;SDS011;2107;52.306;10.484;2023-05-02T05:44:51;0.20;;;0.20;;
4186;SDS011;2107;52.306;10.484;2023-05-02T05:47:18;0.20;;;0.20;;
4186;SDS011;2107;52.306;10.484;2023-05-02T05:49:46;0.27;;;0.27;;
4186;SDS011;2107;52.306;10.484;2023-05-02T05:52:13;0.20;;;0.20;;
4186;SDS011;2107;52.306;10.484;2023-05-02T05:54:42;0.80;;;0.80;;
4186;SDS011;2107;52.306;10.484;2023-05-02T05:57:09;1.50;;;1.50;;
4186;SDS011;2107;52.306;10.484;2023-05-02T05:59:35;1.03;;;1.03;;
4186;SDS011;2107;52.306;10.484;2023-05-02T06:02:02;0.70;;;0.70;;
4186;SDS011;2107;52.306;10.484;2023-05-02T06:04:29;0.77;;;0.77;;
4186;SDS011;2107;52.306;10.484;2023-05-02T06:06:56;0.90;;;0.90;;
4186;SDS011;2107;52.306;10.484;2023-05-02T06:09:23;0.50;;;0.50;;
4186;SDS011;2107;52.306;10.484;2023-05-02T06:11:51;0.30;;;0.30;;
4186;SDS011;2107;52.306;10.484;2023-05-02T06:14:18;0.30;;;0.30;;
4186;SDS011;2107;52.306;10.484;2023-05-02T06:16:45;0.30;;;0.30;;
4186;SDS011;2107;52.306;10.484;2023-05-02T06:19:11;0.30;;;0.30;;
4186;SDS011;2107;52.306;10.484;2023-05-02T06:21:39;0.30;;;0.30;;
4186;SDS011;2107;52.306;10.484;2023-05-02T06:24:06;0.30;;;0.30;;
4186;SDS011;2107;52.306;10.484;2023-05-02T06:26:33;0.30;;;0.30;;
4186;SDS011;2107;52.306;10.484;2023-05-02T06:29:01;0.50;;;0.50;;
4186;SDS011;2107;52.306;10.484;2023-05-02T06:31:28;0.70;;;0.70;;
4186;SDS011;2107;52.306;10.484;2023-05-02T06:33:55;0.60;;;0.60;;
4186;SDS011;2107;52.306;10.484;2023-05-02T06:36:22;0.50;;;0.50;;
4186;SDS011;2107;52.306;10.484;2023-05-02T06:38:49;0.40;;;0.40;;
4186;SDS011;2107;52.306;10.484;2023-05-02T06:41:15;0.50;;;0.50;;
4186;SDS011;2107;52.306;10.484;2023-05-02T06:43:44;0.60;;;0.60;;
4186;SDS011;2107;52.306;10.484;2023-05-02T06:46:12;0.50;;;0.50;;
4186;SDS011;2107;52.306;10.484;2023-05-02T06:48:39;0.60;;;0.60;;
4186;SDS011;2107;52.306;10.484;2023-05-02T06:51:06;0.60;;;0.60;;
4186;SDS011;2107;52.306;10.484;2023-05-02T06:53:33;0.60;;;0.60;;
4186;SDS011;2107;52.306;10.484;2023-05-02T06:56:00;0.70;;;0.70;;
4186;SDS011;2107;52.306;10.484;2023-05-02T06:58:27;0.60;;;0.60;;
4186;SDS011;2107;52.306;10.484;2023-05-02T07:00:55;0.63;;;0.63;;
4186;SDS011;2107;52.306;10.484;2023-05-02T07:03:23;1.00;;;1.00;;
4186;SDS011;2107;52.306;10.484;2023-05-02T07:05:50;0.70;;;0.70;;
4186;SDS011;2107;52.306;10.484;2023-05-02T07:08:17;1.00;;;1.00;;
4186;SDS011;2107;52.306;10.484;2023-05-02T07:10:46;0.90;;;0.90;;
4186;SDS011;2107;52.306;10.484;2023-05-02T07:13:13;1.00;;;1.00;;
4186;SDS011;2107;52.306;10.484;2023-05-02T07:15:41;1.10;;;1.10;;
4186;SDS011;2107;52.306;10.484;2023-05-02T07:18:10;1.90;;;1.90;;
4186;SDS011;2107;52.306;10.484;2023-05-02T07:20:38;2.50;;;2.50;;
4186;SDS011;2107;52.306;10.484;2023-05-02T07:23:06;2.90;;;2.90;;
4186;SDS011;2107;52.306;10.484;2023-05-02T07:25:34;3.40;;;3.40;;
4186;SDS011;2107;52.306;10.484;2023-05-02T07:28:01;3.50;;;3.50;;
4186;SDS011;2107;52.306;10.484;2023-05-02T07:30:28;3.37;;;3.37;;
4186;SDS011;2107;52.306;10.484;2023-05-02T07:32:55;3.03;;;3.03;;
4186;SDS011;2107;52.306;10.484;2023-05-02T07:35:22;3.60;;;3.60;;
4186;SDS011;2107;52.306;10.484;2023-05-02T07:37:50;3.10;;;3.10;;
4186;SDS011;2107;52.306;10.484;2023-05-02T07:40:17;3.87;;;3.87;;
4186;SDS011;2107;52.306;10.484;2023-05-02T07:42:44;3.30;;;3.30;;
4186;SDS011;2107;52.306;10.484;2023-05-02T07:45:11;3.40;;;3.40;;
4186;SDS011;2107;52.306;10.484;2023-05-02T07:47:38;3.70;;;3.70;;
4186;SDS011;2107;52.306;10.484;2023-05-02T07:50:06;3.60;;;3.60;;
4186;SDS011;2107;52.306;10.484;2023-05-02T07:52:33;3.10;;;3.10;;
4186;SDS011;2107;52.306;10.484;2023-05-02T07:55:01;3.20;;;3.20;;
4186;SDS011;2107;52.306;10.484;2023-05-02T07:57:29;3.00;;;3.00;;
4186;SDS011;2107;52.306;10.484;2023-05-02T07:59:56;3.33;;;3.33;;
4186;SDS011;2107;52.306;10.484;2023-05-02T08:02:23;3.30;;;3.30;;
4186;SDS011;2107;52.306;10.484;2023-05-02T08:04:51;3.20;;;3.20;;
4186;SDS011;2107;52.306;10.484;2023-05-02T08:07:18;3.40;;;3.40;;
4186;SDS011;2107;52.306;10.484;2023-05-02T08:09:45;3.37;;;3.37;;
4186;SDS011;2107;52.306;10.484;2023-05-02T08:12:13;3.00;;;3.00;;
4186;SDS011;2107;52.306;10.484;2023-05-02T08:14:40;3.20;;;3.20;;
4186;SDS011;2107;52.306;10.484;2023-05-02T08:17:07;2.63;;;2.63;;
4186;SDS011;2107;52.306;10.484;2023-05-02T08:19:34;2.50;;;2.50;;
4186;SDS011;2107;52.306;10.484;2023-05-02T08:22:01;1.83;;;1.83;;
4186;SDS011;2107;52.306;10.484;2023-05-02T08:24:27;1.10;;;1.10;;
4186;SDS011;2107;52.306;10.484;2023-05-02T08:26:55;1.00;;;1.00;;
4186;SDS011;2107;52.306;10.484;2023-05-02T08:29:23;1.30;;;1.30;;
4186;SDS011;2107;52.306;10.484;2023-05-02T08:31:50;1.30;;;1.30;;
4186;SDS011;2107;52.306;10.484;2023-05-02T08:34:17;1.13;;;1.13;;
4186;SDS011;2107;52.306;10.484;2023-05-02T08:36:43;0.90;;;0.90;;
4186;SDS011;2107;52.306;10.484;2023-05-02T08:39:11;1.40;;;1.40;;
4186;SDS011;2107;52.306;10.484;2023-05-02T08:41:38;1.50;;;1.50;;
4186;SDS011;2107;52.306;10.484;2023-05-02T08:44:05;1.50;;;1.50;;
4186;SDS011;2107;52.306;10.484;2023-05-02T08:46:35;1.27;;;1.27;;
4186;SDS011;2107;52.306;10.484;2023-05-02T08:49:05;1.00;;;1.00;;
4186;SDS011;2107;52.306;10.484;2023-05-02T08:51:35;1.13;;;1.13;;
4186;SDS011;2107;52.306;10.484;2023-05-02T08:54:03;1.27;;;1.27;;
4186;SDS011;2107;52.306;10.484;2023-05-02T08:56:34;0.90;;;0.90;;
4186;SDS011;2107;52.306;10.484;2023-05-02T08:59:02;0.70;;;0.70;;
4186;SDS011;2107;52.306;10.484;2023-05-02T09:01:29;0.50;;;0.50;;
4186;SDS011;2107;52.306;10.484;2023-05-02T09:03:58;0.80;;;0.80;;
4186;SDS011;2107;52.306;10.484;2023-05-02T09:06:25;0.53;;;0.53;;
4186;SDS011;2107;52.306;10.484;2023-05-02T09:08:53;0.70;;;0.70;;
4186;SDS011;2107;52.306;10.484;2023-05-02T09:11:20;0.70;;;0.70;;
4186;SDS011;2107;52.306;10.484;2023-05-02T09:13:47;1.10;;;1.10;;
4186;SDS011;2107;52.306;10.484;2023-05-02T09:16:15;1.30;;;1.30;;
4186;SDS011;2107;52.306;10.484;2023-05-02T09:18:47;1.00;;;1.00;;
4186;SDS011;2107;52.306;10.484;2023-05-02T09:21:16;0.80;;;0.80;;
4186;SDS011;2107;52.306;10.484;2023-05-02T09:23:45;0.80;;;0.80;;
4186;SDS011;2107;52.306;10.484;2023-05-02T09:26:14;0.80;;;0.80;;
4186;SDS011;2107;52.306;10.484;2023-05-02T09:28:43;1.30;;;1.30;;
4186;SDS011;2107;52.306;10.484;2023-05-02T09:31:11;1.40;;;1.40;;
4186;SDS011;2107;52.306;10.484;2023-05-02T09:33:39;1.10;;;1.10;;
4186;SDS011;2107;52.306;10.484;2023-05-02T09:36:07;1.33;;;1.33;;
4186;SDS011;2107;52.306;10.484;2023-05-02T09:38:39;1.47;;;1.47;;
4186;SDS011;2107;52.306;10.484;2023-05-02T09:41:06;1.30;;;1.30;;
4186;SDS011;2107;52.306;10.484;2023-05-02T09:43:33;1.10;;;1.10;;
4186;SDS011;2107;52.306;10.484;2023-05-02T09:46:01;0.97;;;0.97;;
4186;SDS011;2107;52.306;10.484;2023-05-02T09:48:29;0.90;;;0.90;;
4186;SDS011;2107;52.306;10.484;2023-05-02T09:50:57;1.20;;;1.20;;
4186;SDS011;2107;52.306;10.484;2023-05-02T09:53:25;1.20;;;1.20;;
4186;SDS011;2107;52.306;10.484;2023-05-02T09:56:02;0.70;;;0.70;;
4186;SDS011;2107;52.306;10.484;2023-05-02T09:58:29;1.00;;;1.00;;
4186;SDS011;2107;52.306;10.484;2023-05-02T10:00:56;0.80;;;0.80;;
4186;SDS011;2107;52.306;10.484;2023-05-02T10:03:24;0.60;;;0.60;;
4186;SDS011;2107;52.306;10.484;2023-05-02T10:05:52;0.70;;;0.70;;
4186;SDS011;2107;52.306;10.484;2023-05-02T10:08:20;0.90;;;0.90;;
4186;SDS011;2107;52.306;10.484;2023-05-02T10:10:51;0.80;;;0.80;;
4186;SDS011;2107;52.306;10.484;2023-05-02T10:13:22;0.60;;;0.60;;
4186;SDS011;2107;52.306;10.484;2023-05-02T10:15:57;0.80;;;0.80;;
4186;SDS011;2107;52.306;10.484;2023-05-02T10:18:26;0.90;;;0.90;;
4186;SDS011;2107;52.306;10.484;2023-05-02T10:20:55;0.97;;;0.97;;
4186;SDS011;2107;52.306;10.484;2023-05-02T10:23:24;0.90;;;0.90;;
4186;SDS011;2107;52.306;10.484;2023-05-02T10:25:53;0.80;;;0.80;;
4186;SDS011;2107;52.306;10.484;2023-05-02T10:28:22;1.10;;;1.10;;
4186;SDS011;2107;52.306;10.484;2023-05-02T10:30:49;0.70;;;0.70;;
4186;SDS011;2107;52.306;10.484;2023-05-02T10:33:17;0.67;;;0.67;;
4186;SDS011;2107;52.306;10.484;2023-05-02T10:35:44;0.90;;;0.90;;
4186;SDS011;2107;52.306;10.484;2023-05-02T10:38:12;0.83;;;0.83;;
4186;SDS011;2107;52.306;10.484;2023-05-02T10:40:45;1.10;;;1.10;;
4186;SDS011;2107;52.306;10.484;2023-05-02T10:43:19;1.20;;;1.20;;
4186;SDS011;2107;52.306;10.484;2023-05-02T10:45:49;1.30;;;1.30;;
4186;SDS011;2107;52.306;10.484;2023-05-02T10:48:19;1.00;;;1.00;;
4186;SDS011;2107;52.306;10.484;2023-05-02T10:50:47;0.90;;;0.90;;
4186;SDS011;2107;52.306;10.484;2023-05-02T10:53:22;0.80;;;0.80;;
4186;SDS011;2107;52.306;10.484;2023-05-02T10:58:37;1.30;;;1.30;;
4186;SDS011;2107;52.306;10.484;2023-05-02T11:04:09;1.10;;;1.10;;
4186;SDS011;2107;52.306;10.484;2023-05-02T11:06:37;1.10;;;1.10;;
4186;SDS011;2107;52.306;10.484;2023-05-02T11:09:42;1.20;;;1.20;;
4186;SDS011;2107;52.306;10.484;2023-05-02T11:12:09;1.60;;;1.60;;
4186;SDS011;2107;52.306;10.484;2023-05-02T11:14:44;1.00;;;1.00;;
4186;SDS011;2107;52.306;10.484;2023-05-02T11:17:15;1.20;;;1.20;;
4186;SDS011;2107;52.306;10.484;2023-05-02T11:22:50;1.17;;;1.17;;
4186;SDS011;2107;52.306;10.484;2023-05-02T11:25:27;0.90;;;0.90;;
4186;SDS011;2107;52.306;10.484;2023-05-02T11:28:07;0.90;;;0.90;;
4186;SDS011;2107;52.306;10.484;2023-05-02T11:31:09;0.90;;;0.90;;
4186;SDS011;2107;52.306;10.484;2023-05-02T11:34:38;1.00;;;1.00;;
4186;SDS011;2107;52.306;10.484;2023-05-02T11:37:09;1.00;;;1.00;;
4186;SDS011;2107;52.306;10.484;2023-05-02T11:39:37;0.50;;;0.50;;
4186;SDS011;2107;52.306;10.484;2023-05-02T11:42:04;0.70;;;0.70;;
4186;SDS011;2107;52.306;10.484;2023-05-02T11:44:33;1.10;;;1.10;;
4186;SDS011;2107;52.306;10.484;2023-05-02T11:47:01;1.10;;;1.10;;
4186;SDS011;2107;52.306;10.484;2023-05-02T11:49:28;1.00;;;1.00;;
4186;SDS011;2107;52.306;10.484;2023-05-02T11:51:57;1.27;;;1.27;;
4186;SDS011;2107;52.306;10.484;2023-05-02T11:54:24;1.10;;;1.10;;
4186;SDS011;2107;52.306;10.484;2023-05-02T11:56:51;1.33;;;1.33;;
4186;SDS011;2107;52.306;10.484;2023-05-02T11:59:18;1.20;;;1.20;;
4186;SDS011;2107;52.306;10.484;2023-05-02T12:01:49;1.00;;;1.00;;
4186;SDS011;2107;52.306;10.484;2023-05-02T12:04:17;1.00;;;1.00;;
4186;SDS011;2107;52.306;10.484;2023-05-02T12:06:54;1.00;;;1.00;;
4186;SDS011;2107;52.306;10.484;2023-05-02T12:09:21;1.00;;;1.00;;
4186;SDS011;2107;52.306;10.484;2023-05-02T12:11:50;1.10;;;1.10;;
4186;SDS011;2107;52.306;10.484;2023-05-02T12:14:25;1.03;;;1.03;;
4186;SDS011;2107;52.306;10.484;2023-05-02T12:16:54;1.10;;;1.10;;
4186;SDS011;2107;52.306;10.484;2023-05-02T12:19:23;1.00;;;1.00;;
4186;SDS011;2107;52.306;10.484;2023-05-02T12:21:50;1.00;;;1.00;;
4186;SDS011;2107;52.306;10.484;2023-05-02T12:24:17;0.70;;;0.70;;
4186;SDS011;2107;52.306;10.484;2023-05-02T12:26:45;1.10;;;1.10;;
4186;SDS011;2107;52.306;10.484;2023-05-02T12:29:12;1.30;;;1.30;;
4186;SDS011;2107;52.306;10.484;2023-05-02T12:31:48;1.30;;;1.30;;
4186;SDS011;2107;52.306;10.484;2023-05-02T12:37:00;1.50;;;1.50;;
4186;SDS011;2107;52.306;10.484;2023-05-02T12:39:34;1.40;;;1.40;;
4186;SDS011;2107;52.306;10.484;2023-05-02T12:42:07;1.40;;;1.40;;
4186;SDS011;2107;52.306;10.484;2023-05-02T12:44:36;1.60;;;1.60;;
4186;SDS011;2107;52.306;10.484;2023-05-02T12:47:03;1.30;;;1.30;;
4186;SDS011;2107;52.306;10.484;2023-05-02T12:49:30;1.30;;;1.30;;
4186;SDS011;2107;52.306;10.484;2023-05-02T12:52:13;1.20;;;1.20;;
4186;SDS011;2107;52.306;10.484;2023-05-02T12:54:39;1.50;;;1.50;;
4186;SDS011;2107;52.306;10.484;2023-05-02T12:57:06;1.40;;;1.40;;
4186;SDS011;2107;52.306;10.484;2023-05-02T12:59:33;1.30;;;1.30;;
4186;SDS011;2107;52.306;10.484;2023-05-02T13:02:00;1.50;;;1.50;;
4186;SDS011;2107;52.306;10.484;2023-05-02T13:04:35;1.50;;;1.50;;
4186;SDS011;2107;52.306;10.484;2023-05-02T13:07:03;1.70;;;1.70;;
4186;SDS011;2107;52.306;10.484;2023-05-02T13:09:30;1.47;;;1.47;;
4186;SDS011;2107;52.306;10.484;2023-05-02T13:11:57;1.40;;;1.40;;
4186;SDS011;2107;52.306;10.484;2023-05-02T13:14:24;1.20;;;1.20;;
4186;SDS011;2107;52.306;10.484;2023-05-02T13:16:51;1.40;;;1.40;;
4186;SDS011;2107;52.306;10.484;2023-05-02T13:19:19;1.40;;;1.40;;
4186;SDS011;2107;52.306;10.484;2023-05-02T13:21:47;1.20;;;1.20;;
4186;SDS011;2107;52.306;10.484;2023-05-02T13:24:14;1.00;;;1.00;;
4186;SDS011;2107;52.306;10.484;2023-05-02T13:26:41;0.80;;;0.80;;
4186;SDS011;2107;52.306;10.484;2023-05-02T13:29:08;0.70;;;0.70;;
4186;SDS011;2107;52.306;10.484;2023-05-02T13:31:36;0.90;;;0.90;;
4186;SDS011;2107;52.306;10.484;2023-05-02T13:34:03;1.10;;;1.10;;
4186;SDS011;2107;52.306;10.484;2023-05-02T13:36:31;1.20;;;1.20;;
4186;SDS011;2107;52.306;10.484;2023-05-02T13:38:59;0.80;;;0.80;;
4186;SDS011;2107;52.306;10.484;2023-05-02T13:41:26;1.10;;;1.10;;
4186;SDS011;2107;52.306;10.484;2023-05-02T13:43:52;1.00;;;1.00;;
4186;SDS011;2107;52.306;10.484;2023-05-02T13:46:19;1.40;;;1.40;;
4186;SDS011;2107;52.306;10.484;2023-05-02T13:48:46;1.17;;;1.17;;
4186;SDS011;2107;52.306;10.484;2023-05-02T13:51:13;1.27;;;1.27;;
4186;SDS011;2107;52.306;10.484;2023-05-02T13:53:40;1.50;;;1.50;;
4186;SDS011;2107;52.306;10.484;2023-05-02T13:56:08;1.13;;;1.13;;
4186;SDS011;2107;52.306;10.484;2023-05-02T13:58:35;1.10;;;1.10;;
4186;SDS011;2107;52.306;10.484;2023-05-02T14:01:02;1.50;;;1.50;;
4186;SDS011;2107;52.306;10.484;2023-05-02T14:03:29;1.40;;;1.40;;
4186;SDS011;2107;52.306;10.484;2023-05-02T14:05:56;1.30;;;1.30;;
4186;SDS011;2107;52.306;10.484;2023-05-02T14:08:23;1.70;;;1.70;;
4186;SDS011;2107;52.306;10.484;2023-05-02T14:10:50;1.80;;;1.80;;
4186;SDS011;2107;52.306;10.484;2023-05-02T14:13:18;1.80;;;1.80;;
4186;SDS011;2107;52.306;10.484;2023-05-02T14:15:45;1.50;;;1.50;;
4186;SDS011;2107;52.306;10.484;2023-05-02T14:18:12;1.40;;;1.40;;
4186;SDS011;2107;52.306;10.484;2023-05-02T14:20:40;1.60;;;1.60;;
4186;SDS011;2107;52.306;10.484;2023-05-02T14:23:07;1.30;;;1.30;;
4186;SDS011;2107;52.306;10.484;2023-05-02T14:25:34;1.10;;;1.10;;
4186;SDS011;2107;52.306;10.484;2023-05-02T14:28:01;1.90;;;1.90;;
4186;SDS011;2107;52.306;10.484;2023-05-02T14:30:29;1.10;;;1.10;;
4186;SDS011;2107;52.306;10.484;2023-05-02T14:32:56;1.20;;;1.20;;
4186;SDS011;2107;52.306;10.484;2023-05-02T14:35:23;1.10;;;1.10;;
4186;SDS011;2107;52.306;10.484;2023-05-02T14:37:50;1.30;;;1.30;;
4186;SDS011;2107;52.306;10.484;2023-05-02T14:40:17;1.30;;;1.30;;
4186;SDS011;2107;52.306;10.484;2023-05-02T14:42:44;1.73;;;1.73;;
4186;SDS011;2107;52.306;10.484;2023-05-02T14:45:10;1.50;;;1.50;;
4186;SDS011;2107;52.306;10.484;2023-05-02T14:47:39;1.07;;;1.07;;
4186;SDS011;2107;52.306;10.484;2023-05-02T14:50:06;1.40;;;1.40;;
4186;SDS011;2107;52.306;10.484;2023-05-02T14:52:34;1.63;;;1.63;;
4186;SDS011;2107;52.306;10.484;2023-05-02T14:55:01;1.10;;;1.10;;
4186;SDS011;2107;52.306;10.484;2023-05-02T14:57:28;1.40;;;1.40;;
4186;SDS011;2107;52.306;10.484;2023-05-02T14:59:55;1.30;;;1.30;;
4186;SDS011;2107;52.306;10.484;2023-05-02T15:02:22;1.20;;;1.20;;
4186;SDS011;2107;52.306;10.484;2023-05-02T15:04:50;1.00;;;1.00;;
4186;SDS011;2107;52.306;10.484;2023-05-02T15:07:17;1.10;;;1.10;;
4186;SDS011;2107;52.306;10.484;2023-05-02T15:09:44;1.00;;;1.00;;
4186;SDS011;2107;52.306;10.484;2023-05-02T15:12:11;1.10;;;1.10;;
4186;SDS011;2107;52.306;10.484;2023-05-02T15:14:38;1.00;;;1.00;;
4186;SDS011;2107;52.306;10.484;2023-05-02T15:17:04;1.00;;;1.00;;
4186;SDS011;2107;52.306;10.484;2023-05-02T15:19:31;1.10;;;1.10;;
4186;SDS011;2107;52.306;10.484;2023-05-02T15:22:00;1.70;;;1.70;;